Time;durP1;ratioP1;P1;durP2;ratioP2;P2;SDS_P1;SDS_P2;PMS_P1;PMS_P2;Temp;Humidity;BMP_temperature;BMP_pressure;BME280_temperature;BME280_humidity;BME280_pressure;Samples;Min_cycle;Max_cycle;Signal;HPM_P1;HPM_P2
2021/12/14 00:01:00;;;;;;;;;;;8.50;99.90;;;;;;5121901;27;19948;-82
2021/12/14 00:03:27;;;;;;;;;;;8.60;99.90;;;;;;5121626;27;20412;-82
2021/12/14 00:05:53;;;;;;;;;;;8.50;99.90;;;;;;5121481;27;19963;-82
2021/12/14 00:08:19;;;;;;;;;;;8.50;99.90;;;;;;5121331;27;20267;-87
2021/12/14 00:11:36;;;;;;;;;;;8.50;99.90;;;;;;5113288;27;19944;-82
2021/12/14 00:16:05;;;;;;;;;;;8.50;99.90;;;;;;5121556;27;19923;-82
2021/12/14 00:18:32;;;;;;;;;;;8.50;99.90;;;;;;5121363;27;19923;-82
2021/12/14 00:21:00;;;;;;;;;;;8.50;99.90;;;;;;5122997;27;20026;-82
2021/12/14 00:26:12;;;;;;;;;;;8.60;99.90;;;;;;5138281;27;20266;-82
2021/12/14 00:28:38;;;;;;;;;;;8.60;99.90;;;;;;5138226;27;19923;-82
2021/12/14 00:31:06;;;;;;;;;;;8.60;99.90;;;;;;5132163;27;20313;-82
2021/12/14 00:33:35;;;;;;;;;;;8.50;99.90;;;;;;5137662;27;19927;-82
2021/12/14 00:36:02;;;;;;;;;;;8.60;99.90;;;;;;5135779;27;19923;-82
2021/12/14 00:38:28;;;;;;;;;;;8.60;99.90;;;;;;5117465;27;19975;-82
2021/12/14 00:40:55;;;;;;;;;;;8.60;99.90;;;;;;5118233;27;19923;-82
2021/12/14 00:43:21;;;;;;;;;;;8.60;99.90;;;;;;5120781;27;19923;-83
2021/12/14 00:45:47;;;;;;;;;;;8.50;99.90;;;;;;5120740;27;19923;-82
2021/12/14 00:48:13;;;;;;;;;;;8.60;99.90;;;;;;5138052;27;19924;-82
2021/12/14 00:50:40;;;;;;;;;;;8.60;99.90;;;;;;5131489;27;20279;-82
2021/12/14 00:53:06;;;;;;;;;;;8.50;99.90;;;;;;5136769;27;20375;-82
2021/12/14 00:55:35;;;;;;;;;;;8.50;99.90;;;;;;5111585;27;20002;-82
2021/12/14 00:58:01;;;;;;;;;;;8.50;99.90;;;;;;5104315;27;19923;-82
2021/12/14 01:00:28;;;;;;;;;;;8.60;99.90;;;;;;5134148;27;19946;-82
2021/12/14 01:02:54;;;;;;;;;;;8.50;99.90;;;;;;5120905;27;19930;-82
2021/12/14 01:05:32;;;;;;;;;;;8.50;99.90;;;;;;5137511;27;20268;-82
2021/12/14 01:07:58;;;;;;;;;;;8.50;99.90;;;;;;5100460;27;19923;-82
2021/12/14 01:10:47;;;;;;;;;;;8.50;99.90;;;;;;5117552;27;20287;-82
2021/12/14 01:13:13;;;;;;;;;;;8.50;99.90;;;;;;5106083;27;20018;-83
2021/12/14 01:15:53;;;;;;;;;;;8.40;99.90;;;;;;5108766;27;20359;-82
2021/12/14 01:18:33;;;;;;;;;;;8.50;99.90;;;;;;5120691;27;19923;-82
2021/12/14 01:21:13;;;;;;;;;;;8.40;99.90;;;;;;5120113;27;19945;-82
2021/12/14 01:23:38;;;;;;;;;;;8.40;99.90;;;;;;5120131;27;20018;-82
2021/12/14 01:26:08;;;;;;;;;;;8.40;99.90;;;;;;5137353;27;19966;-82
2021/12/14 01:28:34;;;;;;;;;;;8.40;99.90;;;;;;5104492;27;19923;-82
2021/12/14 01:31:16;;;;;;;;;;;8.40;99.90;;;;;;5083466;28;19970;-82
2021/12/14 01:33:43;;;;;;;;;;;8.40;99.90;;;;;;5119156;27;19970;-82
2021/12/14 01:36:23;;;;;;;;;;;8.40;99.90;;;;;;5133797;27;19967;-82
2021/12/14 01:39:09;;;;;;;;;;;8.30;99.90;;;;;;5136758;27;19934;-82
2021/12/14 01:41:35;;;;;;;;;;;8.30;99.90;;;;;;5137063;27;19924;-82
2021/12/14 01:44:01;;;;;;;;;;;8.30;99.90;;;;;;5119772;27;20386;-82
2021/12/14 01:46:33;;;;;;;;;;;8.30;99.90;;;;;;5088573;27;19973;-82
2021/12/14 01:49:04;;;;;;;;;;;8.30;99.90;;;;;;5123153;27;20354;-82
2021/12/14 01:51:31;;;;;;;;;;;8.30;99.90;;;;;;5100564;28;19927;-83
2021/12/14 01:53:57;;;;;;;;;;;8.30;99.90;;;;;;5105507;27;19923;-82
2021/12/14 01:56:25;;;;;;;;;;;8.30;99.90;;;;;;5116488;28;19924;-82
2021/12/14 01:58:53;;;;;;;;;;;8.30;99.90;;;;;;5116308;28;19923;-82
2021/12/14 02:01:20;;;;;;;;;;;8.30;99.90;;;;;;5118133;27;20359;-82
2021/12/14 02:03:49;;;;;;;;;;;8.30;99.90;;;;;;5137849;27;20023;-81
2021/12/14 02:06:16;;;;;;;;;;;8.30;99.90;;;;;;5140615;27;19923;-82
2021/12/14 02:08:42;;;;;;;;;;;8.40;99.90;;;;;;5121359;27;20355;-82
2021/12/14 02:11:10;;;;;;;;;;;8.30;99.90;;;;;;5131858;27;20022;-82
2021/12/14 02:13:38;;;;;;;;;;;8.30;99.90;;;;;;5123554;27;19923;-82
2021/12/14 02:16:04;;;;;;;;;;;8.30;99.90;;;;;;5123919;27;19923;-82
2021/12/14 02:18:30;;;;;;;;;;;8.30;99.90;;;;;;5141041;27;19936;-82
2021/12/14 02:20:58;;;;;;;;;;;8.30;99.90;;;;;;5122894;27;19962;-82
2021/12/14 02:23:24;;;;;;;;;;;8.30;99.90;;;;;;5123067;27;19923;-81
2021/12/14 02:25:51;;;;;;;;;;;8.30;99.90;;;;;;5123576;27;19991;-82
2021/12/14 02:28:18;;;;;;;;;;;8.30;99.90;;;;;;5123669;27;20014;-82
2021/12/14 02:30:46;;;;;;;;;;;8.30;99.90;;;;;;5123271;27;19930;-82
2021/12/14 02:33:20;;;;;;;;;;;8.30;99.90;;;;;;5136435;27;20356;-82
2021/12/14 02:35:47;;;;;;;;;;;8.20;99.90;;;;;;5107815;27;19923;-82
2021/12/14 02:38:13;;;;;;;;;;;8.20;99.90;;;;;;5116453;28;19981;-83
2021/12/14 02:40:54;;;;;;;;;;;8.20;99.90;;;;;;5108567;27;19924;-82
2021/12/14 02:43:40;;;;;;;;;;;8.20;99.90;;;;;;5118301;27;19928;-82
2021/12/14 02:46:05;;;;;;;;;;;8.20;99.90;;;;;;5119451;27;19924;-82
2021/12/14 02:48:31;;;;;;;;;;;8.20;99.90;;;;;;5137020;27;19930;-81
2021/12/14 02:51:03;;;;;;;;;;;8.20;99.90;;;;;;5116207;28;19923;-82
2021/12/14 02:53:30;;;;;;;;;;;8.20;99.90;;;;;;5106246;27;19949;-82
2021/12/14 02:55:56;;;;;;;;;;;8.30;99.90;;;;;;5115121;27;19930;-83
2021/12/14 02:58:21;;;;;;;;;;;8.30;99.90;;;;;;5113368;28;19923;-82
2021/12/14 03:00:48;;;;;;;;;;;8.30;99.90;;;;;;5132802;27;20008;-82
2021/12/14 03:03:14;;;;;;;;;;;8.30;99.90;;;;;;5107274;28;19975;-82
2021/12/14 03:05:42;;;;;;;;;;;8.30;99.90;;;;;;5127958;27;19978;-82
2021/12/14 03:08:14;;;;;;;;;;;8.30;99.90;;;;;;5118891;27;19923;-82
2021/12/14 03:10:58;;;;;;;;;;;8.30;99.90;;;;;;5118787;27;19927;-83
2021/12/14 03:13:30;;;;;;;;;;;8.30;99.90;;;;;;5116189;27;19924;-82
2021/12/14 03:15:57;;;;;;;;;;;8.30;99.90;;;;;;5114884;28;20010;-82
2021/12/14 03:18:25;;;;;;;;;;;8.30;99.90;;;;;;5101061;27;19923;-84
2021/12/14 03:20:53;;;;;;;;;;;8.30;99.90;;;;;;5119114;27;19923;-82
2021/12/14 03:23:22;;;;;;;;;;;8.20;99.90;;;;;;5121193;27;19931;-82
2021/12/14 03:25:50;;;;;;;;;;;8.20;99.90;;;;;;5118719;27;19923;-83
2021/12/14 03:28:17;;;;;;;;;;;8.20;99.90;;;;;;5136353;27;19929;-82
2021/12/14 03:30:52;;;;;;;;;;;8.20;99.90;;;;;;5117008;27;19924;-83
2021/12/14 03:33:21;;;;;;;;;;;8.20;99.90;;;;;;5132321;27;20379;-82
2021/12/14 03:35:57;;;;;;;;;;;8.20;99.90;;;;;;5117962;27;20380;-83
2021/12/14 03:38:43;;;;;;;;;;;8.20;99.90;;;;;;5118555;27;20317;-82
2021/12/14 03:41:13;;;;;;;;;;;8.20;99.90;;;;;;5110782;28;19930;-82
2021/12/14 03:43:42;;;;;;;;;;;8.20;99.90;;;;;;5115474;28;20338;-82
2021/12/14 03:46:08;;;;;;;;;;;8.20;99.90;;;;;;5128498;27;19923;-82
2021/12/14 03:48:34;;;;;;;;;;;8.20;99.90;;;;;;5118495;27;19923;-82
2021/12/14 03:51:01;;;;;;;;;;;8.10;99.90;;;;;;5111176;28;20023;-82
2021/12/14 03:53:26;;;;;;;;;;;8.20;99.90;;;;;;5127882;27;19973;-82
2021/12/14 03:56:04;;;;;;;;;;;8.20;99.90;;;;;;5118285;27;19927;-82
2021/12/14 03:58:35;;;;;;;;;;;8.20;99.90;;;;;;5135604;27;19927;-82
2021/12/14 04:01:09;;;;;;;;;;;8.20;99.90;;;;;;5135337;27;19976;-82
2021/12/14 04:03:35;;;;;;;;;;;8.20;99.90;;;;;;5135314;27;19923;-82
2021/12/14 04:06:03;;;;;;;;;;;8.20;99.90;;;;;;5118138;27;19924;-82
2021/12/14 04:08:29;;;;;;;;;;;8.10;99.90;;;;;;5118379;27;19923;-82
2021/12/14 04:10:56;;;;;;;;;;;8.30;99.90;;;;;;5116929;27;19923;-82
2021/12/14 04:13:24;;;;;;;;;;;8.30;99.90;;;;;;5112829;27;19931;-82
2021/12/14 04:15:50;;;;;;;;;;;8.30;99.90;;;;;;5133895;27;19928;-82
2021/12/14 04:18:16;;;;;;;;;;;8.30;99.90;;;;;;5118178;27;19931;-83
2021/12/14 04:20:42;;;;;;;;;;;8.30;99.90;;;;;;5117704;27;19977;-83
2021/12/14 04:23:10;;;;;;;;;;;8.30;99.90;;;;;;5106493;28;19924;-82
2021/12/14 04:25:36;;;;;;;;;;;8.30;99.90;;;;;;5127832;27;19930;-82
2021/12/14 04:28:07;;;;;;;;;;;8.30;99.90;;;;;;5134902;27;20271;-82
2021/12/14 04:30:33;;;;;;;;;;;8.40;99.90;;;;;;5134933;27;19923;-82
2021/12/14 04:33:01;;;;;;;;;;;8.30;99.90;;;;;;5116976;27;19965;-83
2021/12/14 04:35:27;;;;;;;;;;;8.30;99.90;;;;;;5116967;27;19924;-82
2021/12/14 04:37:56;;;;;;;;;;;8.30;99.90;;;;;;5099530;28;19924;-82
2021/12/14 04:54:00;;;;;;;;;;;8.30;99.90;;;;;;5132853;27;19923;-82
2021/12/14 04:56:28;;;;;;;;;;;8.30;99.90;;;;;;5101074;28;19923;-82
2021/12/14 04:59:03;;;;;;;;;;;8.30;99.90;;;;;;5096986;28;20286;-82
2021/12/14 05:01:31;;;;;;;;;;;8.30;99.90;;;;;;5113274;27;19923;-83
2021/12/14 05:03:59;;;;;;;;;;;8.30;99.90;;;;;;5116605;27;19923;-82
2021/12/14 05:06:32;;;;;;;;;;;8.30;99.90;;;;;;5134733;27;20363;-82
2021/12/14 05:09:21;;;;;;;;;;;8.30;99.90;;;;;;5116745;27;19972;-82
2021/12/14 05:12:07;;;;;;;;;;;8.30;99.90;;;;;;5114727;27;19919;-82
2021/12/14 05:14:34;;;;;;;;;;;8.40;99.90;;;;;;5117090;27;19919;-83
2021/12/14 05:17:01;;;;;;;;;;;8.30;99.90;;;;;;5115546;27;19955;-82
2021/12/14 05:19:28;;;;;;;;;;;8.30;99.90;;;;;;5116828;27;20360;-82
2021/12/14 05:21:59;;;;;;;;;;;8.40;99.90;;;;;;5113405;28;19968;-83
2021/12/14 05:24:26;;;;;;;;;;;8.40;99.90;;;;;;5126092;27;20301;-82
2021/12/14 05:27:04;;;;;;;;;;;8.40;99.90;;;;;;5116535;27;20340;-83
2021/12/14 05:29:29;;;;;;;;;;;8.40;99.90;;;;;;5117183;27;19931;-82
2021/12/14 05:31:56;;;;;;;;;;;8.40;99.90;;;;;;5112779;28;20268;-82
2021/12/14 05:34:23;;;;;;;;;;;8.40;99.90;;;;;;5131795;27;19970;-82
2021/12/14 05:36:48;;;;;;;;;;;8.40;99.90;;;;;;5116852;27;19966;-82
2021/12/14 05:44:32;;;;;;;;;;;8.40;99.90;;;;;;5133705;27;20416;-82
2021/12/14 05:46:59;;;;;;;;;;;8.40;99.90;;;;;;5116668;28;19948;-82
2021/12/14 05:49:26;;;;;;;;;;;8.40;99.90;;;;;;5133674;28;19919;-83
2021/12/14 05:51:54;;;;;;;;;;;8.40;99.90;;;;;;5133777;28;20263;-82
2021/12/14 05:54:31;;;;;;;;;;;8.40;99.90;;;;;;5116541;28;20472;-82
2021/12/14 05:56:58;;;;;;;;;;;8.40;99.90;;;;;;5115837;28;19958;-82
2021/12/14 05:59:25;;;;;;;;;;;8.40;99.90;;;;;;5133099;28;19942;-83
2021/12/14 06:01:52;;;;;;;;;;;8.50;99.90;;;;;;5130861;28;20393;-83
2021/12/14 06:04:18;;;;;;;;;;;8.40;99.90;;;;;;5121466;28;20019;-83
2021/12/14 06:06:52;;;;;;;;;;;8.50;99.90;;;;;;5110513;28;19998;-82
2021/12/14 06:09:25;;;;;;;;;;;8.40;99.90;;;;;;5133435;28;19923;-83
2021/12/14 06:11:55;;;;;;;;;;;8.50;99.90;;;;;;5113150;28;20010;-84
2021/12/14 06:14:22;;;;;;;;;;;8.50;99.90;;;;;;5111520;28;20004;-83
2021/12/14 06:16:49;;;;;;;;;;;8.50;99.90;;;;;;5131970;28;20257;-83
2021/12/14 06:19:21;;;;;;;;;;;8.60;99.90;;;;;;5133517;28;20030;-83
2021/12/14 06:21:49;;;;;;;;;;;8.60;99.90;;;;;;5112535;28;19972;-82
2021/12/14 06:24:15;;;;;;;;;;;8.60;99.90;;;;;;5113045;28;20360;-83
2021/12/14 06:26:43;;;;;;;;;;;8.60;99.90;;;;;;5080378;28;19973;-82
2021/12/14 06:29:11;;;;;;;;;;;8.60;99.90;;;;;;5112830;28;20021;-83
2021/12/14 06:31:39;;;;;;;;;;;8.60;99.90;;;;;;5129726;28;19924;-82
2021/12/14 06:34:16;;;;;;;;;;;8.60;99.90;;;;;;5115694;28;19923;-83
2021/12/14 06:37:03;;;;;;;;;;;8.60;99.90;;;;;;5115913;28;20375;-82
2021/12/14 06:39:48;;;;;;;;;;;8.60;99.90;;;;;;5112620;28;20006;-81
2021/12/14 06:42:14;;;;;;;;;;;8.60;99.90;;;;;;5111959;28;19927;-83
2021/12/14 06:44:40;;;;;;;;;;;8.60;99.90;;;;;;5084272;28;20394;-84
2021/12/14 06:47:05;;;;;;;;;;;8.70;99.90;;;;;;5109643;28;19930;-83
2021/12/14 06:49:31;;;;;;;;;;;8.60;99.90;;;;;;5132700;28;19930;-83
2021/12/14 06:51:57;;;;;;;;;;;8.60;99.90;;;;;;5118314;27;19923;-83
2021/12/14 06:54:24;;;;;;;;;;;8.70;99.90;;;;;;5119454;27;19931;-84
2021/12/14 06:56:52;;;;;;;;;;;8.70;99.90;;;;;;5116214;28;19928;-88
2021/12/14 06:59:20;;;;;;;;;;;8.70;99.90;;;;;;5125064;27;19924;-84
2021/12/14 07:02:08;;;;;;;;;;;8.70;99.90;;;;;;5109016;27;19923;-84
2021/12/14 07:04:35;;;;;;;;;;;8.70;99.90;;;;;;5118269;27;20068;-83
2021/12/14 07:07:03;;;;;;;;;;;8.70;99.90;;;;;;5133384;27;19974;-82
2021/12/14 07:09:38;;;;;;;;;;;8.70;99.90;;;;;;5131963;27;19923;-82
2021/12/14 07:12:10;;;;;;;;;;;8.70;99.90;;;;;;5098822;28;19927;-82
2021/12/14 07:14:38;;;;;;;;;;;8.70;99.90;;;;;;5112144;27;19972;-82
2021/12/14 07:17:10;;;;;;;;;;;8.70;99.90;;;;;;5119413;27;19926;-84
2021/12/14 07:19:55;;;;;;;;;;;8.70;99.90;;;;;;5119445;27;19920;-82
2021/12/14 07:22:24;;;;;;;;;;;8.60;99.90;;;;;;5137489;27;19955;-89
2021/12/14 07:24:57;;;;;;;;;;;8.70;99.90;;;;;;5129958;27;19945;-86
2021/12/14 07:27:26;;;;;;;;;;;8.70;99.90;;;;;;5142154;27;19926;-86
2021/12/14 07:29:52;;;;;;;;;;;8.70;99.90;;;;;;5126828;27;19920;-89
2021/12/14 07:32:38;;;;;;;;;;;8.70;99.90;;;;;;5139699;27;19919;-89
2021/12/14 07:35:18;;;;;;;;;;;8.70;99.90;;;;;;5120790;27;19924;-88
2021/12/14 07:37:44;;;;;;;;;;;8.70;99.90;;;;;;5137494;27;19926;-87
2021/12/14 07:40:10;;;;;;;;;;;8.70;99.90;;;;;;5119189;27;19974;-85
2021/12/14 07:42:36;;;;;;;;;;;8.70;99.90;;;;;;5119106;27;20413;-85
2021/12/14 07:45:01;;;;;;;;;;;8.70;99.90;;;;;;5136339;27;19969;-86
2021/12/14 07:47:27;;;;;;;;;;;8.70;99.90;;;;;;5135991;27;19923;-85
2021/12/14 07:49:54;;;;;;;;;;;8.70;99.90;;;;;;5118999;27;19974;-87
2021/12/14 07:52:22;;;;;;;;;;;8.70;99.90;;;;;;5118580;27;19923;-85
2021/12/14 07:54:51;;;;;;;;;;;8.70;99.90;;;;;;5119295;27;19919;-85
2021/12/14 07:57:19;;;;;;;;;;;8.70;99.90;;;;;;5118878;27;20320;-83
2021/12/14 07:59:46;;;;;;;;;;;8.70;99.90;;;;;;5118908;27;19984;-80
2021/12/14 08:02:15;;;;;;;;;;;8.70;99.90;;;;;;5137101;27;20041;-84
2021/12/14 08:04:42;;;;;;;;;;;8.80;99.90;;;;;;5118145;27;19972;-83
2021/12/14 08:07:08;;;;;;;;;;;8.80;99.90;;;;;;5118040;27;19970;-85
2021/12/14 08:09:44;;;;;;;;;;;8.80;99.90;;;;;;5117787;27;20074;-82
2021/12/14 08:12:11;;;;;;;;;;;8.80;99.90;;;;;;5112690;27;19932;-83
2021/12/14 08:14:36;;;;;;;;;;;8.80;99.90;;;;;;5094885;27;19996;-82
2021/12/14 08:17:07;;;;;;;;;;;8.80;99.90;;;;;;5101186;28;19924;-82
2021/12/14 08:19:41;;;;;;;;;;;8.80;99.90;;;;;;5115276;27;19946;-83
2021/12/14 08:22:26;;;;;;;;;;;8.80;99.90;;;;;;5123426;27;19957;-82
2021/12/14 08:24:51;;;;;;;;;;;8.80;99.90;;;;;;5135382;27;19919;-82
2021/12/14 08:27:18;;;;;;;;;;;8.90;99.90;;;;;;5134767;27;20386;-83
2021/12/14 08:29:47;;;;;;;;;;;8.80;99.90;;;;;;5133352;27;19926;-83
2021/12/14 08:32:14;;;;;;;;;;;8.80;99.90;;;;;;5134351;27;19919;-83
2021/12/14 08:34:42;;;;;;;;;;;8.80;99.90;;;;;;5134186;27;20394;-82
2021/12/14 08:37:10;;;;;;;;;;;8.80;99.90;;;;;;5135066;27;19975;-82
2021/12/14 08:39:42;;;;;;;;;;;8.80;99.90;;;;;;5124479;27;19976;-82
2021/12/14 08:42:19;;;;;;;;;;;8.80;99.90;;;;;;5134415;27;19973;-87
2021/12/14 08:44:52;;;;;;;;;;;8.80;99.90;;;;;;5116801;27;20005;-84
2021/12/14 08:47:39;;;;;;;;;;;8.80;99.90;;;;;;5126560;27;20322;-84
2021/12/14 08:50:10;;;;;;;;;;;8.80;99.90;;;;;;5132585;27;20412;-84
2021/12/14 08:52:36;;;;;;;;;;;8.90;99.90;;;;;;5113300;27;19923;-84
2021/12/14 08:55:03;;;;;;;;;;;8.80;99.90;;;;;;5131046;27;19985;-85
2021/12/14 08:57:30;;;;;;;;;;;8.80;99.90;;;;;;5115764;27;19938;-84
2021/12/14 09:00:01;;;;;;;;;;;8.80;99.90;;;;;;5117013;27;19966;-84
2021/12/14 09:02:29;;;;;;;;;;;8.80;99.90;;;;;;5115991;27;19930;-84
2021/12/14 09:04:57;;;;;;;;;;;8.80;99.90;;;;;;5128549;27;19955;-83
2021/12/14 09:07:24;;;;;;;;;;;8.80;99.90;;;;;;5133714;27;19924;-83
2021/12/14 09:09:52;;;;;;;;;;;8.80;99.90;;;;;;5113099;28;19927;-85
2021/12/14 09:12:24;;;;;;;;;;;8.80;99.90;;;;;;5133187;27;20349;-85
2021/12/14 09:14:50;;;;;;;;;;;8.80;99.90;;;;;;5112133;27;20190;-81
2021/12/14 09:17:17;;;;;;;;;;;8.80;99.90;;;;;;5111097;27;19924;-85
2021/12/14 09:19:45;;;;;;;;;;;8.80;99.90;;;;;;5116594;27;19976;-84
2021/12/14 09:22:14;;;;;;;;;;;8.80;99.90;;;;;;5133442;27;20006;-83
2021/12/14 09:24:40;;;;;;;;;;;8.80;99.90;;;;;;5116271;27;20432;-83
2021/12/14 09:27:09;;;;;;;;;;;8.80;99.90;;;;;;5105608;28;19923;-84
2021/12/14 09:29:35;;;;;;;;;;;8.80;99.90;;;;;;5096072;28;19931;-84
2021/12/14 09:32:02;;;;;;;;;;;8.80;99.90;;;;;;5096808;28;19923;-83
2021/12/14 09:34:31;;;;;;;;;;;8.80;99.90;;;;;;5094914;28;20131;-81
2021/12/14 09:36:57;;;;;;;;;;;8.90;99.90;;;;;;5113230;28;19924;-79
2021/12/14 09:39:32;;;;;;;;;;;8.90;99.90;;;;;;5094510;28;19958;-82
2021/12/14 09:41:59;;;;;;;;;;;8.90;99.90;;;;;;5093295;28;19926;-85
2021/12/14 09:44:26;;;;;;;;;;;8.90;99.90;;;;;;5095884;28;20014;-85
2021/12/14 09:46:53;;;;;;;;;;;8.90;99.90;;;;;;5113235;28;20340;-83
2021/12/14 09:49:19;;;;;;;;;;;8.90;99.90;;;;;;5095638;28;20022;-84
2021/12/14 09:51:47;;;;;;;;;;;8.90;99.90;;;;;;5094331;28;20010;-83
2021/12/14 09:54:15;;;;;;;;;;;9.00;99.90;;;;;;5112493;28;20263;-84
2021/12/14 09:56:44;;;;;;;;;;;9.00;99.90;;;;;;5095463;28;19920;-86
2021/12/14 09:59:10;;;;;;;;;;;9.00;99.90;;;;;;5113458;28;19923;-86
2021/12/14 10:01:42;;;;;;;;;;;9.00;99.90;;;;;;5113101;28;20038;-85
2021/12/14 10:04:13;;;;;;;;;;;9.00;99.90;;;;;;5096008;28;20267;-84
2021/12/14 10:06:39;;;;;;;;;;;9.00;99.90;;;;;;5100510;28;19927;-83
2021/12/14 10:09:10;;;;;;;;;;;9.00;99.90;;;;;;5059513;28;19920;-86
2021/12/14 10:12:15;;;;;;;;;;;9.00;99.90;;;;;;5092624;28;20314;-82
2021/12/14 10:14:36;;;;;;;;;;;9.10;99.90;;;;;;5095299;28;19920;-84
2021/12/14 10:17:04;;;;;;;;;;;9.00;99.90;;;;;;5113200;28;19920;-82
2021/12/14 10:19:30;;;;;;;;;;;9.10;99.90;;;;;;5112846;28;19924;-82
2021/12/14 10:21:58;;;;;;;;;;;9.00;99.90;;;;;;5096165;28;19978;-83
2021/12/14 10:24:25;;;;;;;;;;;9.10;99.90;;;;;;5112631;28;19920;-84
2021/12/14 10:26:55;;;;;;;;;;;9.10;99.90;;;;;;5116872;28;19970;-82
2021/12/14 10:29:23;;;;;;;;;;;9.10;99.90;;;;;;5099878;28;19969;-83
2021/12/14 10:32:01;;;;;;;;;;;9.10;99.90;;;;;;5116848;28;20264;-83
2021/12/14 10:34:28;;;;;;;;;;;9.10;99.90;;;;;;5129925;27;19931;-83
2021/12/14 10:37:04;;;;;;;;;;;9.20;99.90;;;;;;5110065;28;19931;-82
2021/12/14 10:44:46;;;;;;;;;;;9.20;99.90;;;;;;5136151;27;19928;-82
2021/12/14 10:47:13;;;;;;;;;;;9.20;99.90;;;;;;5136467;27;20006;-83
2021/12/14 10:49:39;;;;;;;;;;;9.30;99.90;;;;;;5119317;27;19919;-83
2021/12/14 10:52:09;;;;;;;;;;;9.30;99.90;;;;;;5100814;27;20332;-84
2021/12/14 10:54:35;;;;;;;;;;;9.30;99.90;;;;;;5101333;27;19926;-84
2021/12/14 10:57:03;;;;;;;;;;;9.30;99.90;;;;;;5111323;27;19923;-82
2021/12/14 10:59:30;;;;;;;;;;;9.30;99.90;;;;;;5136725;27;19919;-85
2021/12/14 11:01:56;;;;;;;;;;;9.30;99.90;;;;;;5138195;27;20257;-83
2021/12/14 11:04:26;;;;;;;;;;;9.30;99.90;;;;;;5147447;27;19973;-83
2021/12/14 11:06:52;;;;;;;;;;;9.30;99.90;;;;;;5119290;27;19923;-83
2021/12/14 11:09:43;;;;;;;;;;;9.40;99.90;;;;;;5117306;27;19923;-84
2021/12/14 11:12:29;;;;;;;;;;;9.30;99.90;;;;;;5099149;28;19924;-83
2021/12/14 11:15:03;;;;;;;;;;;9.40;99.90;;;;;;5115558;27;19977;-84
2021/12/14 11:20:16;;;;;;;;;;;9.40;99.90;;;;;;5121557;27;20403;-84
2021/12/14 11:22:45;;;;;;;;;;;9.40;99.90;;;;;;5119106;27;19930;-84
2021/12/14 11:25:17;;;;;;;;;;;9.40;99.90;;;;;;5133299;27;19927;-84
2021/12/14 11:27:48;;;;;;;;;;;9.40;99.90;;;;;;5106054;27;20010;-84
2021/12/14 11:30:22;;;;;;;;;;;9.40;99.90;;;;;;5122143;27;19949;-84
2021/12/14 11:33:01;;;;;;;;;;;9.50;99.90;;;;;;5118604;27;19924;-84
2021/12/14 11:35:28;;;;;;;;;;;9.50;99.90;;;;;;5135865;27;19923;-84
2021/12/14 11:37:55;;;;;;;;;;;9.50;99.90;;;;;;5118143;27;19930;-84
2021/12/14 11:40:23;;;;;;;;;;;9.50;99.90;;;;;;5105661;27;19930;-84
2021/12/14 11:42:50;;;;;;;;;;;9.50;99.90;;;;;;5135882;27;20356;-84
2021/12/14 11:45:19;;;;;;;;;;;9.50;99.90;;;;;;5136055;27;20035;-84
2021/12/14 11:47:48;;;;;;;;;;;9.50;99.90;;;;;;5135891;27;20082;-84
2021/12/14 11:50:34;;;;;;;;;;;9.50;99.90;;;;;;5134209;27;19924;-85
2021/12/14 11:53:00;;;;;;;;;;;9.50;99.90;;;;;;5103693;27;20305;-85
2021/12/14 11:55:30;;;;;;;;;;;9.50;99.90;;;;;;5135777;27;20382;-85
2021/12/14 11:58:04;;;;;;;;;;;9.50;99.90;;;;;;5135311;27;20433;-85
2021/12/14 12:00:29;;;;;;;;;;;9.50;99.90;;;;;;5132715;27;19930;-85
2021/12/14 12:02:55;;;;;;;;;;;9.50;99.90;;;;;;5118173;27;19923;-85
2021/12/14 12:05:22;;;;;;;;;;;9.60;99.90;;;;;;5101158;27;19923;-85
2021/12/14 12:10:51;;;;;;;;;;;9.60;99.90;;;;;;5134793;27;20286;-86
2021/12/14 12:13:16;;;;;;;;;;;9.60;99.90;;;;;;5135006;27;19923;-85
2021/12/14 12:15:43;;;;;;;;;;;9.60;99.90;;;;;;5133661;27;19930;-85
2021/12/14 12:18:09;;;;;;;;;;;9.60;99.90;;;;;;5135414;27;19981;-84
2021/12/14 12:20:41;;;;;;;;;;;9.60;99.90;;;;;;5117683;27;19924;-85
2021/12/14 12:23:08;;;;;;;;;;;9.60;99.90;;;;;;5134973;27;19924;-85
2021/12/14 12:25:45;;;;;;;;;;;9.60;99.90;;;;;;5111897;28;19924;-85
2021/12/14 12:28:16;;;;;;;;;;;9.60;99.90;;;;;;5105748;28;20010;-85
2021/12/14 12:30:48;;;;;;;;;;;9.60;99.90;;;;;;5097487;28;19923;-85
2021/12/14 12:33:17;;;;;;;;;;;9.60;99.90;;;;;;5123263;27;19931;-84
2021/12/14 12:35:42;;;;;;;;;;;9.60;99.90;;;;;;5137695;27;19972;-85
2021/12/14 12:38:26;;;;;;;;;;;9.60;99.90;;;;;;5133513;27;19924;-85
2021/12/14 12:40:59;;;;;;;;;;;9.60;99.90;;;;;;5138123;27;19924;-85
2021/12/14 12:43:27;;;;;;;;;;;9.60;99.90;;;;;;5137305;27;19930;-85
2021/12/14 12:45:56;;;;;;;;;;;9.60;99.90;;;;;;5138076;27;20333;-85
2021/12/14 12:48:59;;;;;;;;;;;9.70;99.90;;;;;;5120112;27;19923;-84
2021/12/14 12:51:40;;;;;;;;;;;9.70;99.90;;;;;;5019287;28;19932;-85
2021/12/14 12:54:09;;;;;;;;;;;9.70;99.90;;;;;;5103888;27;19927;-85
2021/12/14 12:56:37;;;;;;;;;;;9.70;99.90;;;;;;5137553;27;19923;-84
2021/12/14 12:59:06;;;;;;;;;;;9.70;99.90;;;;;;5138033;27;20368;-84
2021/12/14 13:01:31;;;;;;;;;;;9.70;99.90;;;;;;5120811;27;19927;-85
2021/12/14 13:03:57;;;;;;;;;;;9.70;99.90;;;;;;5137157;27;20387;-85
2021/12/14 13:06:23;;;;;;;;;;;9.70;99.90;;;;;;5102595;27;19968;-85
2021/12/14 13:08:52;;;;;;;;;;;9.70;99.90;;;;;;5137321;27;19923;-85
2021/12/14 13:11:30;;;;;;;;;;;9.60;99.90;;;;;;5137986;27;19923;-85
2021/12/14 13:13:58;;;;;;;;;;;9.60;99.90;;;;;;5120095;27;19971;-84
2021/12/14 13:16:34;;;;;;;;;;;9.60;99.90;;;;;;5137212;27;19926;-85
2021/12/14 13:19:02;;;;;;;;;;;9.60;99.90;;;;;;5120225;27;19927;-85
2021/12/14 13:21:28;;;;;;;;;;;9.70;99.90;;;;;;5120514;27;19923;-85
2021/12/14 13:24:17;;;;;;;;;;;9.70;99.90;;;;;;5137144;27;19960;-85
2021/12/14 13:26:45;;;;;;;;;;;9.70;99.90;;;;;;5122831;27;20006;-85
2021/12/14 13:29:14;;;;;;;;;;;9.70;99.90;;;;;;5120054;27;19927;-85
2021/12/14 13:31:42;;;;;;;;;;;9.70;99.90;;;;;;5137383;27;19982;-85
2021/12/14 13:34:13;;;;;;;;;;;9.70;99.90;;;;;;5119862;27;19927;-85
2021/12/14 13:36:40;;;;;;;;;;;9.70;99.90;;;;;;5137368;27;19923;-85
2021/12/14 13:39:07;;;;;;;;;;;9.70;99.90;;;;;;5137200;27;19923;-85
2021/12/14 13:41:51;;;;;;;;;;;9.60;99.90;;;;;;5119934;27;19923;-85
2021/12/14 13:44:17;;;;;;;;;;;9.60;99.90;;;;;;5137021;27;19931;-85
2021/12/14 13:46:44;;;;;;;;;;;9.70;99.90;;;;;;5136954;27;19930;-87
2021/12/14 13:49:11;;;;;;;;;;;9.70;99.90;;;;;;5137035;27;19988;-85
2021/12/14 13:51:36;;;;;;;;;;;9.70;99.90;;;;;;5119676;27;19930;-85
2021/12/14 13:54:03;;;;;;;;;;;9.70;99.90;;;;;;5119938;27;19923;-85
2021/12/14 13:56:30;;;;;;;;;;;9.70;99.90;;;;;;5136872;27;20291;-85
2021/12/14 13:58:59;;;;;;;;;;;9.70;99.90;;;;;;5136946;27;19923;-85
2021/12/14 14:01:46;;;;;;;;;;;9.70;99.90;;;;;;5103751;27;19930;-85
2021/12/14 14:04:13;;;;;;;;;;;9.70;99.90;;;;;;5130347;27;20022;-84
2021/12/14 14:06:40;;;;;;;;;;;9.70;99.90;;;;;;5113959;27;20511;-85
2021/12/14 14:09:14;;;;;;;;;;;9.70;99.90;;;;;;5123857;27;19927;-85
2021/12/14 14:11:42;;;;;;;;;;;9.70;99.90;;;;;;5124025;27;19974;-85
2021/12/14 14:14:18;;;;;;;;;;;9.70;99.90;;;;;;5141067;27;20013;-85
2021/12/14 14:16:50;;;;;;;;;;;9.70;99.90;;;;;;5123790;27;20397;-85
2021/12/14 14:19:18;;;;;;;;;;;9.70;99.90;;;;;;5140943;27;19963;-85
2021/12/14 14:21:48;;;;;;;;;;;9.70;99.90;;;;;;5122929;27;19974;-85
2021/12/14 14:24:18;;;;;;;;;;;9.70;99.90;;;;;;5140425;27;19930;-85
2021/12/14 14:26:44;;;;;;;;;;;9.70;99.90;;;;;;5123827;27;20018;-85
2021/12/14 14:29:11;;;;;;;;;;;9.70;99.90;;;;;;5140811;27;20410;-85
2021/12/14 14:31:45;;;;;;;;;;;9.70;99.90;;;;;;5123068;27;19991;-85
2021/12/14 14:34:34;;;;;;;;;;;9.70;99.90;;;;;;5140257;27;20015;-85
2021/12/14 14:36:59;;;;;;;;;;;9.70;99.90;;;;;;5140690;27;20047;-85
2021/12/14 14:39:26;;;;;;;;;;;9.70;99.90;;;;;;5140765;27;19930;-85
2021/12/14 14:41:53;;;;;;;;;;;9.70;99.90;;;;;;5122770;27;19983;-85
2021/12/14 14:44:33;;;;;;;;;;;9.70;99.90;;;;;;5126980;27;19976;-85
2021/12/14 14:46:58;;;;;;;;;;;9.70;99.90;;;;;;5112531;27;19991;-85
2021/12/14 14:49:36;;;;;;;;;;;9.70;99.90;;;;;;5123901;27;19982;-85
2021/12/14 14:52:06;;;;;;;;;;;9.70;99.90;;;;;;5139070;27;20331;-86
2021/12/14 14:54:35;;;;;;;;;;;9.60;99.90;;;;;;5119866;27;19932;-85
2021/12/14 14:57:06;;;;;;;;;;;9.70;99.90;;;;;;5133212;27;19934;-85
2021/12/14 14:59:32;;;;;;;;;;;9.70;99.90;;;;;;5140316;27;19923;-85
2021/12/14 15:01:58;;;;;;;;;;;9.70;99.90;;;;;;5096991;27;20381;-85
2021/12/14 15:04:24;;;;;;;;;;;9.70;99.90;;;;;;5137260;27;20006;-85
2021/12/14 15:06:50;;;;;;;;;;;9.60;99.90;;;;;;5105938;27;19927;-85
2021/12/14 15:09:19;;;;;;;;;;;9.60;99.90;;;;;;5139808;27;20005;-85
2021/12/14 15:11:49;;;;;;;;;;;9.60;99.90;;;;;;5138825;27;19927;-85
2021/12/14 15:14:18;;;;;;;;;;;9.60;99.90;;;;;;5119058;27;19927;-85
2021/12/14 15:16:49;;;;;;;;;;;9.60;99.90;;;;;;5130852;27;20405;-85
2021/12/14 15:19:35;;;;;;;;;;;9.60;99.90;;;;;;5122112;27;20014;-85
2021/12/14 15:22:07;;;;;;;;;;;9.60;99.90;;;;;;5139832;27;19923;-85